Time;durP1;ratioP1;P1;durP2;ratioP2;P2;SDS_P1;SDS_P2;PMS_P1;PMS_P2;Temp;Humidity;BMP_temperature;BMP_pressure;BME280_temperature;BME280_humidity;BME280_pressure;Samples;Min_cycle;Max_cycle;Signal;HPM_P1;HPM_P2
2023/10/23 00:07:26;;;;;;;;;;;12.20;99.90;;;;;;6695874;89;20172;-80
2023/10/23 00:17:26;;;;;;;;;;;12.10;99.90;;;;;;6695813;89;20852;-80
2023/10/23 00:27:27;;;;;;;;;;;12.10;99.90;;;;;;6696412;89;20062;-80
2023/10/23 00:37:27;;;;;;;;;;;12.10;99.90;;;;;;6699854;88;20683;-80
2023/10/23 00:47:28;;;;;;;;;;;12.00;99.90;;;;;;6717349;88;20092;-81
2023/10/23 00:57:29;;;;;;;;;;;11.80;99.90;;;;;;6717590;88;20088;-79
2023/10/23 01:07:29;;;;;;;;;;;11.80;99.90;;;;;;6718101;88;20040;-78
2023/10/23 01:17:29;;;;;;;;;;;11.50;99.90;;;;;;6718073;88;20467;-78
2023/10/23 01:27:30;;;;;;;;;;;11.40;99.90;;;;;;6717636;88;20046;-78
2023/10/23 01:37:30;;;;;;;;;;;11.20;99.90;;;;;;6717115;88;20104;-79
2023/10/23 01:47:31;;;;;;;;;;;11.10;99.90;;;;;;6718999;88;20736;-78
2023/10/23 01:57:31;;;;;;;;;;;11.10;99.90;;;;;;6700178;88;20148;-78
2023/10/23 02:17:35;;;;;;;;;;;10.80;99.90;;;;;;6744501;88;20093;-81
2023/10/23 02:27:35;;;;;;;;;;;10.70;99.90;;;;;;6745932;88;20074;-81
2023/10/23 02:37:36;;;;;;;;;;;10.60;99.90;;;;;;6745546;88;20075;-81
2023/10/23 02:47:37;;;;;;;;;;;10.50;99.90;;;;;;6738531;88;20058;-80
2023/10/23 02:57:38;;;;;;;;;;;10.20;99.90;;;;;;6743027;88;20156;-80
2023/10/23 03:07:38;;;;;;;;;;;10.20;99.90;;;;;;6738750;88;20071;-82
2023/10/23 03:17:39;;;;;;;;;;;10.10;99.90;;;;;;6743748;88;20696;-81
2023/10/23 03:27:41;;;;;;;;;;;9.90;99.90;;;;;;6741681;88;20124;-82
2023/10/23 03:37:41;;;;;;;;;;;10.00;99.90;;;;;;6743761;88;20066;-81
2023/10/23 03:47:42;;;;;;;;;;;9.90;99.90;;;;;;6747379;88;20094;-81
2023/10/23 03:57:42;;;;;;;;;;;10.00;99.90;;;;;;6748206;88;20052;-85
2023/10/23 04:07:43;;;;;;;;;;;10.20;99.90;;;;;;6749561;88;20098;-83
2023/10/23 04:17:43;;;;;;;;;;;10.20;99.90;;;;;;6750680;88;20117;-82
2023/10/23 04:27:43;;;;;;;;;;;9.90;99.90;;;;;;6748251;88;20757;-82
2023/10/23 04:37:44;;;;;;;;;;;9.70;99.90;;;;;;6746851;88;20054;-82
2023/10/23 04:47:44;;;;;;;;;;;9.60;99.90;;;;;;6749851;88;20164;-80
2023/10/23 04:57:45;;;;;;;;;;;9.60;99.90;;;;;;6748799;88;20077;-80
2023/10/23 05:07:45;;;;;;;;;;;9.50;99.90;;;;;;6749867;88;20070;-81
2023/10/23 05:17:46;;;;;;;;;;;9.40;99.90;;;;;;6750451;88;20062;-83
2023/10/23 05:27:46;;;;;;;;;;;9.20;99.90;;;;;;6750314;88;20792;-82
2023/10/23 05:37:47;;;;;;;;;;;9.10;99.90;;;;;;6750844;88;20050;-81
2023/10/23 05:47:47;;;;;;;;;;;9.00;99.90;;;;;;6749980;88;20433;-81
2023/10/23 05:57:48;;;;;;;;;;;9.10;99.90;;;;;;6747482;88;20168;-80
2023/10/23 06:07:48;;;;;;;;;;;9.00;99.90;;;;;;6748496;88;20030;-80
2023/10/23 06:17:49;;;;;;;;;;;9.10;99.90;;;;;;6743551;88;20083;-80
2023/10/23 06:27:49;;;;;;;;;;;9.00;99.90;;;;;;6743945;88;20077;-80
2023/10/23 06:37:50;;;;;;;;;;;8.90;99.90;;;;;;6747692;88;20047;-82
2023/10/23 06:47:50;;;;;;;;;;;9.00;99.90;;;;;;6746887;88;20035;-82
2023/10/23 06:57:51;;;;;;;;;;;9.10;99.90;;;;;;6750396;88;20166;-82
2023/10/23 07:07:51;;;;;;;;;;;9.10;99.90;;;;;;6750504;88;20101;-82
2023/10/23 07:17:52;;;;;;;;;;;9.40;99.90;;;;;;6749725;88;20628;-83
2023/10/23 07:27:52;;;;;;;;;;;9.60;99.90;;;;;;6750171;88;20063;-82
2023/10/23 07:37:53;;;;;;;;;;;9.80;99.90;;;;;;6749766;88;20105;-82
2023/10/23 07:47:53;;;;;;;;;;;9.70;99.90;;;;;;6749401;88;20027;-83
2023/10/23 07:57:54;;;;;;;;;;;10.00;99.90;;;;;;6749425;88;20064;-81
2023/10/23 08:08:00;;;;;;;;;;;10.50;99.90;;;;;;6751903;77;20625;-79
2023/10/23 08:18:01;;;;;;;;;;;10.90;99.90;;;;;;6732354;88;20072;-79
2023/10/23 08:28:02;;;;;;;;;;;11.00;99.90;;;;;;6731636;88;20080;-78
2023/10/23 08:38:03;;;;;;;;;;;11.00;99.90;;;;;;6719315;88;20061;-78
2023/10/23 08:48:03;;;;;;;;;;;11.20;99.90;;;;;;6714822;88;20046;-79
2023/10/23 08:58:04;;;;;;;;;;;11.30;99.90;;;;;;6718717;88;20089;-78
2023/10/23 09:08:05;;;;;;;;;;;11.30;99.90;;;;;;6730604;88;20112;-79
2023/10/23 09:18:05;;;;;;;;;;;11.70;99.90;;;;;;6730266;88;20128;-79
2023/10/23 09:28:10;;;;;;;;;;;11.70;99.90;;;;;;6730534;88;20055;-77
2023/10/23 09:38:11;;;;;;;;;;;12.00;99.90;;;;;;6723600;88;20058;-77
2023/10/23 09:48:11;;;;;;;;;;;12.30;99.90;;;;;;6733632;88;20108;-77
2023/10/23 09:58:13;;;;;;;;;;;12.40;99.90;;;;;;6733191;88;20044;-78
2023/10/23 10:08:15;;;;;;;;;;;12.40;99.90;;;;;;6727157;88;20062;-78
2023/10/23 10:18:16;;;;;;;;;;;12.90;99.90;;;;;;6723914;88;20064;-78
2023/10/23 10:28:16;;;;;;;;;;;13.20;99.90;;;;;;6719759;88;20077;-78
2023/10/23 10:38:22;;;;;;;;;;;13.80;99.90;;;;;;6714622;88;20147;-79
2023/10/23 10:48:23;;;;;;;;;;;14.30;99.90;;;;;;6718336;88;20138;-78
2023/10/23 10:58:24;;;;;;;;;;;14.10;99.90;;;;;;6715887;88;20059;-78
2023/10/23 11:08:26;;;;;;;;;;;14.50;99.90;;;;;;6722991;88;20613;-83
2023/10/23 11:18:27;;;;;;;;;;;14.30;99.90;;;;;;6722125;88;20209;-78
2023/10/23 11:28:27;;;;;;;;;;;14.30;99.90;;;;;;6720249;88;20062;-79
2023/10/23 11:38:28;;;;;;;;;;;14.50;99.90;;;;;;6726307;88;20032;-79
2023/10/23 11:48:29;;;;;;;;;;;14.50;99.90;;;;;;6719413;88;20091;-80
2023/10/23 11:58:30;;;;;;;;;;;14.90;99.90;;;;;;6714603;88;20587;-80
2023/10/23 12:08:31;;;;;;;;;;;15.10;99.90;;;;;;6718428;88;20078;-79
2023/10/23 12:18:31;;;;;;;;;;;15.40;99.90;;;;;;6716504;88;20538;-79
2023/10/23 12:28:32;;;;;;;;;;;15.50;99.90;;;;;;6714575;88;20191;-79
2023/10/23 12:38:35;;;;;;;;;;;15.50;99.90;;;;;;6704021;88;20076;-80
2023/10/23 12:48:38;;;;;;;;;;;15.50;99.90;;;;;;6713828;88;20074;-80
2023/10/23 12:58:39;;;;;;;;;;;15.10;99.90;;;;;;6710346;88;20051;-80
2023/10/23 13:08:40;;;;;;;;;;;15.20;99.90;;;;;;6710273;88;20068;-80
2023/10/23 13:18:41;;;;;;;;;;;15.30;99.90;;;;;;6713544;88;20085;-79
2023/10/23 13:28:41;;;;;;;;;;;15.20;99.90;;;;;;6709946;88;20080;-80
2023/10/23 13:38:42;;;;;;;;;;;15.20;99.90;;;;;;6705927;88;20540;-80
2023/10/23 13:48:44;;;;;;;;;;;15.20;99.90;;;;;;6715761;88;20109;-78
2023/10/23 13:58:46;;;;;;;;;;;15.20;99.90;;;;;;6723529;88;20136;-79
2023/10/23 14:18:50;;;;;;;;;;;15.00;99.90;;;;;;6725578;88;20150;-82
2023/10/23 14:28:51;;;;;;;;;;;14.80;99.90;;;;;;6729580;88;20084;-81
2023/10/23 14:38:51;;;;;;;;;;;14.80;99.90;;;;;;6724442;88;20124;-83
2023/10/23 14:48:52;;;;;;;;;;;14.60;99.90;;;;;;6721609;88;20069;-79
2023/10/23 14:58:52;;;;;;;;;;;14.60;99.90;;;;;;6715850;88;20067;-79
2023/10/23 15:08:53;;;;;;;;;;;14.40;99.90;;;;;;6693868;88;20192;-79
2023/10/23 15:18:53;;;;;;;;;;;14.20;99.90;;;;;;6693057;88;20135;-79
2023/10/23 15:28:53;;;;;;;;;;;13.80;99.90;;;;;;6694370;88;20070;-79
2023/10/23 15:38:54;;;;;;;;;;;13.30;99.90;;;;;;6695981;88;20080;-81
2023/10/23 15:48:54;;;;;;;;;;;13.00;99.90;;;;;;6705306;88;20045;-79
2023/10/23 15:58:55;;;;;;;;;;;12.90;99.90;;;;;;6689493;88;20150;-77
2023/10/23 16:08:55;;;;;;;;;;;12.80;99.90;;;;;;6700923;88;20128;-79
2023/10/23 16:18:56;;;;;;;;;;;12.60;99.90;;;;;;6692336;88;20077;-78
2023/10/23 16:28:56;;;;;;;;;;;12.60;99.90;;;;;;6689756;88;20069;-79
2023/10/23 16:38:57;;;;;;;;;;;12.40;99.90;;;;;;6696990;88;20059;-80
2023/10/23 16:48:57;;;;;;;;;;;12.50;99.90;;;;;;6710793;88;20539;-80
2023/10/23 16:58:57;;;;;;;;;;;12.30;99.90;;;;;;6704372;88;20063;-78
2023/10/23 17:08:58;;;;;;;;;;;12.20;99.90;;;;;;6697914;88;20065;-78
2023/10/23 17:18:59;;;;;;;;;;;12.30;99.90;;;;;;6711061;88;20090;-81
2023/10/23 17:28:59;;;;;;;;;;;12.20;99.90;;;;;;6696015;88;20067;-80
2023/10/23 17:39:00;;;;;;;;;;;12.20;99.90;;;;;;6699562;88;20059;-80
2023/10/23 17:49:00;;;;;;;;;;;12.00;99.90;;;;;;6698444;88;20106;-79
2023/10/23 17:59:01;;;;;;;;;;;12.10;99.90;;;;;;6698417;88;20087;-80
2023/10/23 18:09:04;;;;;;;;;;;12.10;99.90;;;;;;6699658;88;20069;-79
2023/10/23 18:19:05;;;;;;;;;;;12.20;99.90;;;;;;6699641;88;20060;-79
2023/10/23 18:29:05;;;;;;;;;;;12.20;99.90;;;;;;6708581;88;20084;-79
2023/10/23 18:39:06;;;;;;;;;;;12.20;99.90;;;;;;6720461;88;20055;-78
2023/10/23 18:49:06;;;;;;;;;;;12.10;99.90;;;;;;6711586;88;20059;-78
2023/10/23 18:59:07;;;;;;;;;;;12.10;99.90;;;;;;6714851;88;20050;-80
2023/10/23 19:09:07;;;;;;;;;;;12.00;99.90;;;;;;6713719;88;20073;-80
2023/10/23 19:19:08;;;;;;;;;;;12.20;99.90;;;;;;6707280;88;20059;-80
2023/10/23 19:29:08;;;;;;;;;;;12.10;99.90;;;;;;6700905;88;20059;-79
2023/10/23 19:39:10;;;;;;;;;;;12.20;99.90;;;;;;6702407;88;20142;-80
2023/10/23 19:49:11;;;;;;;;;;;12.20;99.90;;;;;;6713654;88;20104;-80
2023/10/23 19:59:11;;;;;;;;;;;12.20;99.90;;;;;;6700861;88;20040;-79
2023/10/23 20:09:11;;;;;;;;;;;12.20;99.90;;;;;;6701923;88;20055;-79
2023/10/23 20:19:12;;;;;;;;;;;12.20;99.90;;;;;;6715328;88;20047;-79
2023/10/23 20:29:12;;;;;;;;;;;12.20;99.90;;;;;;6706745;88;20563;-79
2023/10/23 20:49:17;;;;;;;;;;;12.30;99.90;;;;;;6708482;88;20538;-78
2023/10/23 20:59:18;;;;;;;;;;;12.40;99.90;;;;;;6702987;88;20217;-78
2023/10/23 21:09:19;;;;;;;;;;;12.40;99.90;;;;;;6708097;88;20055;-79
2023/10/23 21:19:21;;;;;;;;;;;12.50;99.90;;;;;;6708881;88;20143;-79
2023/10/23 21:29:22;;;;;;;;;;;12.60;99.90;;;;;;6705578;88;20078;-79
2023/10/23 21:39:22;;;;;;;;;;;12.70;99.90;;;;;;6694731;88;20069;-80
2023/10/23 21:49:23;;;;;;;;;;;12.80;99.90;;;;;;6693218;88;20052;-80
2023/10/23 21:59:23;;;;;;;;;;;12.80;99.90;;;;;;6694004;88;20104;-79
2023/10/23 22:09:25;;;;;;;;;;;12.80;99.90;;;;;;6708511;88;20078;-79
2023/10/23 22:19:29;;;;;;;;;;;12.90;99.90;;;;;;6709666;88;20059;-80
2023/10/23 22:29:30;;;;;;;;;;;12.90;99.90;;;;;;6709616;88;20140;-79
2023/10/23 22:39:30;;;;;;;;;;;12.90;99.90;;;;;;6703904;88;20059;-79
2023/10/23 22:49:31;;;;;;;;;;;12.90;99.90;;;;;;6693046;88;20477;-80
2023/10/23 22:59:31;;;;;;;;;;;12.80;99.90;;;;;;6706417;88;20055;-79
2023/10/23 23:09:32;;;;;;;;;;;12.80;99.90;;;;;;6688909;89;20078;-80
2023/10/23 23:19:34;;;;;;;;;;;12.80;99.90;;;;;;6706051;88;20062;-79
2023/10/23 23:29:34;;;;;;;;;;;12.70;99.90;;;;;;6698886;88;20107;-79
2023/10/23 23:39:35;;;;;;;;;;;12.70;99.90;;;;;;6693596;88;20479;-80
2023/10/23 23:49:35;;;;;;;;;;;12.70;99.90;;;;;;6702335;88;20151;-80
2023/10/23 23:59:36;;;;;;;;;;;12.70;99.90;;;;;;6719788;88;20051;-79
